Time,TemperatureF,DewpointF,PressureIn,WindDirection,WindDirectionDegrees,WindSpeedMPH,WindSpeedGustMPH,Humidity,HourlyPrecipIn,Conditions,Clouds,dailyrainin,SoftwareType,DateUTC
2013-12-03 00:12:00,32.0,27.0,-100.00,SW,223,25.0,33.0,81,0.00,,,0.04,,2013-12-03 07:12:00,
2013-12-03 00:42:00,31.0,25.0,-100.00,SW,222,24.0,28.0,77,0.00,,,0.04,,2013-12-03 07:42:00,
2013-12-03 01:11:00,30.0,25.0,-100.00,SW,219,28.0,33.0,81,0.00,,,0.04,,2013-12-03 08:11:00,
2013-12-03 01:42:00,29.0,23.0,-100.00,SW,224,25.0,32.0,77,0.00,,,0.04,,2013-12-03 08:42:00,
2013-12-03 02:11:00,28.0,23.0,-100.00,SW,216,24.0,30.0,81,0.00,,,0.04,,2013-12-03 09:11:00,
2013-12-03 02:43:00,27.0,23.0,-100.00,SW,220,18.0,24.0,84,0.00,,,0.04,,2013-12-03 09:43:00,
2013-12-03 03:13:00,27.0,23.0,-100.00,SSW,210,18.0,25.0,85,0.00,,,0.04,,2013-12-03 10:13:00,
2013-12-03 03:42:00,27.0,22.0,-100.00,SW,215,23.0,28.0,82,0.00,,,0.04,,2013-12-03 10:42:00,
2013-12-03 04:11:00,27.0,22.0,-100.00,SW,222,22.0,28.0,82,0.00,,,0.04,,2013-12-03 11:11:00,
2013-12-03 04:42:00,26.0,21.0,-100.00,WSW,239,22.0,28.0,80,0.00,,,0.04,,2013-12-03 11:42:00,
2013-12-03 05:11:00,26.0,21.0,-100.00,WSW,239,21.0,26.0,81,0.00,,,0.04,,2013-12-03 12:11:00,
2013-12-03 05:42:00,26.0,21.0,-100.00,WSW,240,21.0,24.0,81,0.00,,,0.04,,2013-12-03 12:42:00,
2013-12-03 05:52:00,26.0,21.0,-100.00,WSW,240,21.0,24.0,81,0.00,,,0.04,,2013-12-03 12:52:00,
2013-12-03 06:11:00,25.0,21.0,-100.00,WSW,254,16.0,21.0,82,0.00,,,0.04,,2013-12-03 13:11:00,
2013-12-03 06:42:00,25.0,20.0,-100.00,WSW,243,18.0,22.0,82,0.00,,,0.04,,2013-12-03 13:42:00,
2013-12-03 06:52:00,25.0,20.0,-100.00,WSW,243,18.0,22.0,82,0.00,,,0.04,,2013-12-03 13:52:00,
2013-12-03 07:11:00,25.0,20.0,-100.00,WSW,244,16.0,21.0,82,0.00,,,0.04,,2013-12-03 14:11:00,
2013-12-03 07:42:00,24.0,19.0,-100.00,WSW,241,15.0,18.0,81,0.00,,,0.04,,2013-12-03 14:42:00,
2013-12-03 08:11:00,24.0,18.0,-100.00,SW,230,14.0,19.0,78,0.00,,,0.04,,2013-12-03 15:11:00,
2013-12-03 08:21:00,24.0,18.0,-100.00,SW,230,14.0,19.0,78,0.00,,,0.04,,2013-12-03 15:21:00,
2013-12-03 08:43:00,24.0,18.0,-100.00,WSW,246,15.0,19.0,79,0.00,,,0.04,,2013-12-03 15:43:00,
2013-12-03 09:13:00,23.0,17.0,-100.00,WSW,254,13.0,15.0,78,0.00,,,0.04,,2013-12-03 16:13:00,
2013-12-03 09:23:00,23.0,17.0,-100.00,WSW,254,13.0,15.0,78,0.00,,,0.04,,2013-12-03 16:23:00,
2013-12-03 09:43:00,23.0,18.0,-100.00,NW,308,8.0,10.0,83,0.00,,,0.04,,2013-12-03 16:43:00,
2013-12-03 10:12:00,22.0,18.0,-100.00,North,1,8.0,10.0,84,0.00,,,0.04,,2013-12-03 17:12:00,
2013-12-03 11:22:00,21.0,18.0,-100.00,NNE,24,15.0,18.0,88,0.00,,,0.07,,2013-12-03 18:22:00,
2013-12-03 11:32:00,21.0,18.0,-100.00,NNE,24,15.0,18.0,88,0.00,,,0.07,,2013-12-03 18:32:00,
2013-12-03 11:53:00,21.0,18.0,-100.00,NNE,27,13.0,16.0,89,0.00,,,0.07,,2013-12-03 18:53:00,
2013-12-03 12:02:00,21.0,18.0,-100.00,NNE,27,13.0,16.0,89,0.00,,,0.07,,2013-12-03 19:02:00,
2013-12-03 12:22:00,20.0,16.0,-100.00,NNE,25,16.0,19.0,82,0.00,,,0.07,,2013-12-03 19:22:00,
2013-12-03 12:32:00,20.0,16.0,-100.00,NNE,25,16.0,19.0,82,0.00,,,0.07,,2013-12-03 19:32:00,
2013-12-03 12:52:00,21.0,15.0,-100.00,NE,38,15.0,17.0,79,0.00,,,0.07,,2013-12-03 19:52:00,
2013-12-03 13:01:00,21.0,15.0,-100.00,NE,38,15.0,17.0,79,0.00,,,0.07,,2013-12-03 20:01:00,
2013-12-03 13:22:00,22.0,12.0,-100.00,NE,34,12.0,14.0,67,0.00,,,0.07,,2013-12-03 20:22:00,
2013-12-03 13:32:00,22.0,12.0,-100.00,NE,34,12.0,14.0,67,0.00,,,0.07,,2013-12-03 20:32:00,
2013-12-03 13:53:00,21.0,12.0,-100.00,NE,38,13.0,17.0,66,0.00,,,0.07,,2013-12-03 20:53:00,
2013-12-03 14:02:00,21.0,12.0,-100.00,NE,38,13.0,17.0,66,0.00,,,0.07,,2013-12-03 21:02:00,
2013-12-03 14:22:00,22.0,10.0,-100.00,NNE,32,13.0,17.0,60,0.00,,,0.07,,2013-12-03 21:22:00,
2013-12-03 14:33:00,22.0,10.0,-100.00,NNE,32,13.0,17.0,60,0.00,,,0.07,,2013-12-03 21:33:00,
2013-12-03 14:54:00,22.0,9.0,-100.00,NNE,31,14.0,19.0,57,0.00,,,0.07,,2013-12-03 21:54:00,
2013-12-03 15:03:00,22.0,9.0,-100.00,NNE,31,14.0,19.0,57,0.00,,,0.07,,2013-12-03 22:03:00,
2013-12-03 15:23:00,22.0,10.0,-100.00,NE,48,13.0,18.0,59,0.00,,,0.07,,2013-12-03 22:23:00,
2013-12-03 15:33:00,22.0,10.0,-100.00,NE,48,13.0,18.0,59,0.00,,,0.07,,2013-12-03 22:33:00,
2013-12-03 15:53:00,21.0,8.0,-100.00,NNE,28,14.0,18.0,55,0.00,,,0.07,,2013-12-03 22:53:00,
2013-12-03 16:02:00,21.0,8.0,-100.00,NNE,28,14.0,18.0,55,0.00,,,0.07,,2013-12-03 23:02:00,
2013-12-03 16:22:00,20.0,7.0,-100.00,NNE,30,15.0,17.0,55,0.00,,,0.07,,2013-12-03 23:22:00,
2013-12-03 16:33:00,20.0,7.0,-100.00,NNE,30,15.0,17.0,55,0.00,,,0.07,,2013-12-03 23:33:00,
2013-12-03 16:52:00,20.0,6.0,-100.00,NNE,28,12.0,14.0,55,0.00,,,0.07,,2013-12-03 23:52:00,
2013-12-03 17:02:00,20.0,6.0,-100.00,NNE,28,12.0,14.0,55,0.00,,,0.07,,2013-12-04 00:02:00,
2013-12-03 17:22:00,18.0,6.0,-100.00,NNE,28,10.0,11.0,57,0.00,,,0.07,,2013-12-04 00:22:00,
2013-12-03 17:32:00,18.0,6.0,-100.00,NNE,28,10.0,11.0,57,0.00,,,0.07,,2013-12-04 00:32:00,
2013-12-03 17:52:00,17.0,7.0,-100.00,NNE,32,9.0,11.0,63,0.00,,,0.07,,2013-12-04 00:52:00,
2013-12-03 18:02:00,17.0,7.0,-100.00,NNE,32,9.0,11.0,63,0.00,,,0.07,,2013-12-04 01:02:00,
2013-12-03 18:21:00,15.0,4.0,-100.00,NNE,16,9.0,12.0,61,0.00,,,0.07,,2013-12-04 01:21:00,
2013-12-03 18:32:00,15.0,4.0,-100.00,NNE,16,9.0,12.0,61,0.00,,,0.07,,2013-12-04 01:32:00,
2013-12-03 18:52:00,15.0,4.0,-100.00,NNE,30,11.0,12.0,63,0.00,,,0.07,,2013-12-04 01:52:00,
2013-12-03 19:02:00,15.0,4.0,-100.00,NNE,30,11.0,12.0,63,0.00,,,0.07,,2013-12-04 02:02:00,
2013-12-03 19:21:00,13.0,4.0,-100.00,NE,42,8.0,10.0,65,0.00,,,0.07,,2013-12-04 02:21:00,
2013-12-03 19:32:00,13.0,4.0,-100.00,NE,42,8.0,10.0,65,0.00,,,0.07,,2013-12-04 02:32:00,
2013-12-03 19:52:00,13.0,3.0,-100.00,NE,40,12.0,15.0,63,0.00,,,0.07,,2013-12-04 02:52:00,
2013-12-03 20:02:00,13.0,3.0,-100.00,NE,40,12.0,15.0,63,0.00,,,0.07,,2013-12-04 03:02:00,
2013-12-03 20:21:00,11.0,2.0,-100.00,NNE,31,10.0,14.0,64,0.00,,,0.06,,2013-12-04 03:21:00,
2013-12-03 20:33:00,11.0,2.0,-100.00,NNE,31,10.0,14.0,64,0.00,,,0.06,,2013-12-04 03:33:00,
2013-12-03 20:54:00,10.0,2.0,-100.00,NE,48,6.0,9.0,68,0.00,,,0.06,,2013-12-04 03:54:00,
2013-12-03 21:03:00,10.0,2.0,-100.00,NE,48,6.0,9.0,68,0.00,,,0.06,,2013-12-04 04:03:00,
2013-12-03 21:23:00,10.0,1.0,-100.00,NE,42,8.0,11.0,68,0.00,,,0.04,,2013-12-04 04:23:00,
2013-12-03 21:33:00,10.0,1.0,-100.00,NE,42,8.0,11.0,68,0.00,,,0.04,,2013-12-04 04:33:00,
2013-12-03 21:52:00,10.0,0.0,-100.00,NNE,32,11.0,13.0,64,0.00,,,0.04,,2013-12-04 04:52:00,
2013-12-03 22:02:00,10.0,0.0,-100.00,NNE,32,11.0,13.0,64,0.00,,,0.04,,2013-12-04 05:02:00,
2013-12-03 22:22:00,9.0,0.0,-100.00,NE,37,9.0,12.0,66,0.00,,,0.04,,2013-12-04 05:22:00,
2013-12-03 22:33:00,9.0,0.0,-100.00,NE,37,9.0,12.0,66,0.00,,,0.04,,2013-12-04 05:33:00,
2013-12-03 22:53:00,8.0,0.0,-100.00,NE,37,6.0,8.0,72,0.00,,,0.04,,2013-12-04 05:53:00,
2013-12-03 23:02:00,8.0,0.0,-100.00,NE,37,6.0,8.0,72,0.00,,,0.04,,2013-12-04 06:02:00,
2013-12-03 23:22:00,7.0,0.0,-100.00,NE,41,7.0,10.0,71,0.00,,,0.04,,2013-12-04 06:22:00,
2013-12-03 23:32:00,7.0,0.0,-100.00,NE,41,7.0,10.0,71,0.00,,,0.04,,2013-12-04 06:32:00,
2013-12-03 23:52:00,7.0,-1.0,-100.00,NE,40,8.0,10.0,71,0.00,,,0.04,,2013-12-04 06:52:00,